sensor_id;sensor_type;location;lat;lon;timestamp;P1;durP1;ratioP1;P2;durP2;ratioP2
37241;SDS011;23135;51.078;12.108;2023-08-06T00:01:51;4.80;;;2.25;;
37241;SDS011;23135;51.078;12.108;2023-08-06T00:04:16;5.13;;;2.30;;
37241;SDS011;23135;51.078;12.108;2023-08-06T00:06:42;5.85;;;2.10;;
37241;SDS011;23135;51.078;12.108;2023-08-06T00:09:07;3.03;;;2.28;;
37241;SDS011;23135;51.078;12.108;2023-08-06T00:11:33;2.80;;;1.85;;
37241;SDS011;23135;51.078;12.108;2023-08-06T00:13:59;3.65;;;1.73;;
37241;SDS011;23135;51.078;12.108;2023-08-06T00:16:24;10.30;;;1.95;;
37241;SDS011;23135;51.078;12.108;2023-08-06T00:18:50;3.30;;;2.15;;
37241;SDS011;23135;51.078;12.108;2023-08-06T00:21:15;7.13;;;1.85;;
37241;SDS011;23135;51.078;12.108;2023-08-06T00:23:41;6.15;;;2.42;;
37241;SDS011;23135;51.078;12.108;2023-08-06T00:26:07;5.35;;;2.03;;
37241;SDS011;23135;51.078;12.108;2023-08-06T00:28:33;2.10;;;1.90;;
37241;SDS011;23135;51.078;12.108;2023-08-06T00:30:58;4.38;;;2.30;;
37241;SDS011;23135;51.078;12.108;2023-08-06T00:33:24;8.15;;;2.88;;
37241;SDS011;23135;51.078;12.108;2023-08-06T00:35:50;6.75;;;1.67;;
37241;SDS011;23135;51.078;12.108;2023-08-06T00:38:16;1.92;;;1.50;;
37241;SDS011;23135;51.078;12.108;2023-08-06T00:40:42;4.03;;;1.48;;
37241;SDS011;23135;51.078;12.108;2023-08-06T00:43:07;2.03;;;1.35;;
37241;SDS011;23135;51.078;12.108;2023-08-06T00:45:34;7.03;;;1.00;;
37241;SDS011;23135;51.078;12.108;2023-08-06T00:48:01;3.50;;;1.50;;
37241;SDS011;23135;51.078;12.108;2023-08-06T00:50:28;5.28;;;1.75;;
37241;SDS011;23135;51.078;12.108;2023-08-06T00:52:54;2.95;;;1.25;;
37241;SDS011;23135;51.078;12.108;2023-08-06T00:55:19;3.10;;;0.90;;
37241;SDS011;23135;51.078;12.108;2023-08-06T00:57:45;1.65;;;0.40;;
37241;SDS011;23135;51.078;12.108;2023-08-06T01:00:11;2.00;;;0.43;;
37241;SDS011;23135;51.078;12.108;2023-08-06T01:02:37;1.08;;;0.73;;
37241;SDS011;23135;51.078;12.108;2023-08-06T01:05:03;1.02;;;0.30;;
37241;SDS011;23135;51.078;12.108;2023-08-06T01:10:23;1.13;;;0.40;;
37241;SDS011;23135;51.078;12.108;2023-08-06T01:13:06;0.20;;;0.10;;
37241;SDS011;23135;51.078;12.108;2023-08-06T01:15:43;3.25;;;0.45;;
37241;SDS011;23135;51.078;12.108;2023-08-06T01:18:12;2.40;;;0.25;;
37241;SDS011;23135;51.078;12.108;2023-08-06T01:20:38;1.65;;;0.22;;
37241;SDS011;23135;51.078;12.108;2023-08-06T01:23:04;1.08;;;0.40;;
37241;SDS011;23135;51.078;12.108;2023-08-06T01:25:31;0.35;;;0.15;;
37241;SDS011;23135;51.078;12.108;2023-08-06T01:28:48;0.35;;;0.20;;
37241;SDS011;23135;51.078;12.108;2023-08-06T01:31:07;0.73;;;0.47;;
37241;SDS011;23135;51.078;12.108;2023-08-06T01:33:39;0.30;;;0.20;;
37241;SDS011;23135;51.078;12.108;2023-08-06T01:36:09;0.68;;;0.22;;
37241;SDS011;23135;51.078;12.108;2023-08-06T01:38:35;4.00;;;0.30;;
37241;SDS011;23135;51.078;12.108;2023-08-06T01:41:00;1.45;;;0.30;;
37241;SDS011;23135;51.078;12.108;2023-08-06T01:43:26;1.23;;;0.40;;
37241;SDS011;23135;51.078;12.108;2023-08-06T01:45:52;2.92;;;0.40;;
37241;SDS011;23135;51.078;12.108;2023-08-06T01:48:17;0.70;;;0.00;;
37241;SDS011;23135;51.078;12.108;2023-08-06T01:50:43;0.90;;;0.30;;
37241;SDS011;23135;51.078;12.108;2023-08-06T01:53:08;1.30;;;0.15;;
37241;SDS011;23135;51.078;12.108;2023-08-06T01:55:34;0.10;;;0.10;;
37241;SDS011;23135;51.078;12.108;2023-08-06T01:58:00;0.10;;;0.10;;
37241;SDS011;23135;51.078;12.108;2023-08-06T02:00:25;0.77;;;0.20;;
37241;SDS011;23135;51.078;12.108;2023-08-06T02:02:52;4.38;;;0.73;;
37241;SDS011;23135;51.078;12.108;2023-08-06T02:05:18;0.50;;;0.10;;
37241;SDS011;23135;51.078;12.108;2023-08-06T02:07:44;1.80;;;0.60;;
37241;SDS011;23135;51.078;12.108;2023-08-06T02:10:09;0.32;;;0.10;;
37241;SDS011;23135;51.078;12.108;2023-08-06T02:12:35;0.30;;;0.10;;
37241;SDS011;23135;51.078;12.108;2023-08-06T02:15:00;1.35;;;0.15;;
37241;SDS011;23135;51.078;12.108;2023-08-06T02:17:26;0.77;;;0.40;;
37241;SDS011;23135;51.078;12.108;2023-08-06T02:19:51;1.25;;;0.30;;
37241;SDS011;23135;51.078;12.108;2023-08-06T02:22:17;1.15;;;0.10;;
37241;SDS011;23135;51.078;12.108;2023-08-06T02:24:43;0.90;;;0.20;;
37241;SDS011;23135;51.078;12.108;2023-08-06T02:27:08;2.15;;;0.03;;
37241;SDS011;23135;51.078;12.108;2023-08-06T02:29:34;0.50;;;0.10;;
37241;SDS011;23135;51.078;12.108;2023-08-06T02:31:59;2.58;;;0.00;;
37241;SDS011;23135;51.078;12.108;2023-08-06T02:34:27;1.38;;;0.20;;
37241;SDS011;23135;51.078;12.108;2023-08-06T02:36:52;1.13;;;0.00;;
37241;SDS011;23135;51.078;12.108;2023-08-06T02:39:18;0.15;;;0.15;;
37241;SDS011;23135;51.078;12.108;2023-08-06T02:41:44;2.42;;;0.10;;
37241;SDS011;23135;51.078;12.108;2023-08-06T02:44:10;0.85;;;0.20;;
37241;SDS011;23135;51.078;12.108;2023-08-06T02:46:35;2.85;;;0.10;;
37241;SDS011;23135;51.078;12.108;2023-08-06T02:49:01;0.10;;;0.10;;
37241;SDS011;23135;51.078;12.108;2023-08-06T02:51:26;0.40;;;0.10;;
37241;SDS011;23135;51.078;12.108;2023-08-06T02:53:52;0.63;;;0.30;;
37241;SDS011;23135;51.078;12.108;2023-08-06T02:56:17;2.45;;;0.17;;
37241;SDS011;23135;51.078;12.108;2023-08-06T02:58:43;1.88;;;0.28;;
37241;SDS011;23135;51.078;12.108;2023-08-06T03:01:09;0.15;;;0.10;;
37241;SDS011;23135;51.078;12.108;2023-08-06T03:03:34;1.00;;;0.28;;
37241;SDS011;23135;51.078;12.108;2023-08-06T03:06:00;3.50;;;0.40;;
37241;SDS011;23135;51.078;12.108;2023-08-06T03:08:26;1.10;;;0.10;;
37241;SDS011;23135;51.078;12.108;2023-08-06T03:10:52;2.38;;;0.10;;
37241;SDS011;23135;51.078;12.108;2023-08-06T03:13:17;1.80;;;0.60;;
37241;SDS011;23135;51.078;12.108;2023-08-06T03:15:43;0.52;;;0.30;;
37241;SDS011;23135;51.078;12.108;2023-08-06T03:18:22;0.35;;;0.25;;
37241;SDS011;23135;51.078;12.108;2023-08-06T03:20:48;3.03;;;0.63;;
37241;SDS011;23135;51.078;12.108;2023-08-06T03:23:14;0.40;;;0.13;;
37241;SDS011;23135;51.078;12.108;2023-08-06T03:25:40;0.35;;;0.00;;
37241;SDS011;23135;51.078;12.108;2023-08-06T03:28:06;1.88;;;0.57;;
37241;SDS011;23135;51.078;12.108;2023-08-06T03:30:31;2.13;;;0.20;;
37241;SDS011;23135;51.078;12.108;2023-08-06T03:32:57;0.30;;;0.20;;
37241;SDS011;23135;51.078;12.108;2023-08-06T03:35:23;1.88;;;0.47;;
37241;SDS011;23135;51.078;12.108;2023-08-06T03:37:48;0.30;;;0.30;;
37241;SDS011;23135;51.078;12.108;2023-08-06T03:40:14;0.25;;;0.25;;
37241;SDS011;23135;51.078;12.108;2023-08-06T03:42:40;0.20;;;0.20;;
37241;SDS011;23135;51.078;12.108;2023-08-06T03:45:06;0.10;;;0.10;;
37241;SDS011;23135;51.078;12.108;2023-08-06T03:47:32;1.50;;;0.30;;
37241;SDS011;23135;51.078;12.108;2023-08-06T03:49:58;0.40;;;0.30;;
37241;SDS011;23135;51.078;12.108;2023-08-06T03:52:23;0.22;;;0.13;;
37241;SDS011;23135;51.078;12.108;2023-08-06T03:54:49;2.20;;;0.17;;
37241;SDS011;23135;51.078;12.108;2023-08-06T03:57:15;0.68;;;0.10;;
37241;SDS011;23135;51.078;12.108;2023-08-06T03:59:40;0.80;;;0.20;;
37241;SDS011;23135;51.078;12.108;2023-08-06T04:02:06;1.00;;;0.20;;
37241;SDS011;23135;51.078;12.108;2023-08-06T04:04:32;1.45;;;0.20;;
37241;SDS011;23135;51.078;12.108;2023-08-06T04:06:57;0.85;;;0.20;;
37241;SDS011;23135;51.078;12.108;2023-08-06T04:09:23;0.30;;;0.20;;
37241;SDS011;23135;51.078;12.108;2023-08-06T04:11:48;0.17;;;0.17;;
37241;SDS011;23135;51.078;12.108;2023-08-06T04:14:14;0.85;;;0.30;;
37241;SDS011;23135;51.078;12.108;2023-08-06T04:16:39;0.95;;;0.10;;
37241;SDS011;23135;51.078;12.108;2023-08-06T04:19:05;0.17;;;0.17;;
37241;SDS011;23135;51.078;12.108;2023-08-06T04:21:31;2.50;;;0.20;;
37241;SDS011;23135;51.078;12.108;2023-08-06T04:23:56;0.65;;;0.20;;
37241;SDS011;23135;51.078;12.108;2023-08-06T04:26:22;0.35;;;0.35;;
37241;SDS011;23135;51.078;12.108;2023-08-06T04:28:47;0.20;;;0.17;;
37241;SDS011;23135;51.078;12.108;2023-08-06T04:31:13;0.30;;;0.20;;
37241;SDS011;23135;51.078;12.108;2023-08-06T04:33:39;1.38;;;0.10;;
37241;SDS011;23135;51.078;12.108;2023-08-06T04:36:05;1.95;;;0.15;;
37241;SDS011;23135;51.078;12.108;2023-08-06T04:38:31;0.22;;;0.20;;
37241;SDS011;23135;51.078;12.108;2023-08-06T04:40:57;0.45;;;0.22;;
37241;SDS011;23135;51.078;12.108;2023-08-06T04:43:23;0.52;;;0.10;;
37241;SDS011;23135;51.078;12.108;2023-08-06T04:45:49;0.75;;;0.10;;
37241;SDS011;23135;51.078;12.108;2023-08-06T04:48:16;1.10;;;0.22;;
37241;SDS011;23135;51.078;12.108;2023-08-06T04:50:49;0.47;;;0.10;;
37241;SDS011;23135;51.078;12.108;2023-08-06T04:53:15;0.17;;;0.10;;
37241;SDS011;23135;51.078;12.108;2023-08-06T04:55:41;0.20;;;0.20;;
37241;SDS011;23135;51.078;12.108;2023-08-06T04:58:09;0.50;;;0.10;;
37241;SDS011;23135;51.078;12.108;2023-08-06T05:00:35;0.10;;;0.10;;
37241;SDS011;23135;51.078;12.108;2023-08-06T05:03:01;0.05;;;0.05;;
37241;SDS011;23135;51.078;12.108;2023-08-06T05:05:27;0.75;;;0.00;;
37241;SDS011;23135;51.078;12.108;2023-08-06T05:07:54;0.15;;;0.10;;
37241;SDS011;23135;51.078;12.108;2023-08-06T05:10:21;0.40;;;0.17;;
37241;SDS011;23135;51.078;12.108;2023-08-06T05:12:46;0.43;;;0.10;;
37241;SDS011;23135;51.078;12.108;2023-08-06T05:15:12;0.95;;;0.03;;
37241;SDS011;23135;51.078;12.108;2023-08-06T05:17:38;0.10;;;0.00;;
37241;SDS011;23135;51.078;12.108;2023-08-06T05:20:03;0.57;;;0.10;;
37241;SDS011;23135;51.078;12.108;2023-08-06T05:22:29;4.82;;;0.30;;
37241;SDS011;23135;51.078;12.108;2023-08-06T05:24:55;0.10;;;0.10;;
37241;SDS011;23135;51.078;12.108;2023-08-06T05:27:21;0.40;;;0.10;;
37241;SDS011;23135;51.078;12.108;2023-08-06T05:29:47;0.10;;;0.10;;
37241;SDS011;23135;51.078;12.108;2023-08-06T05:32:13;0.68;;;0.10;;
37241;SDS011;23135;51.078;12.108;2023-08-06T05:34:39;0.52;;;0.52;;
37241;SDS011;23135;51.078;12.108;2023-08-06T05:37:06;0.95;;;0.10;;
37241;SDS011;23135;51.078;12.108;2023-08-06T05:39:32;0.00;;;0.00;;
37241;SDS011;23135;51.078;12.108;2023-08-06T05:41:57;0.00;;;0.00;;
37241;SDS011;23135;51.078;12.108;2023-08-06T05:44:23;0.47;;;0.10;;
37241;SDS011;23135;51.078;12.108;2023-08-06T05:46:49;0.80;;;0.00;;
37241;SDS011;23135;51.078;12.108;2023-08-06T05:49:15;0.28;;;0.20;;
37241;SDS011;23135;51.078;12.108;2023-08-06T05:51:41;1.33;;;0.25;;
37241;SDS011;23135;51.078;12.108;2023-08-06T05:54:07;0.65;;;0.10;;
37241;SDS011;23135;51.078;12.108;2023-08-06T05:56:32;0.28;;;0.25;;
37241;SDS011;23135;51.078;12.108;2023-08-06T05:58:58;0.55;;;0.00;;
37241;SDS011;23135;51.078;12.108;2023-08-06T06:01:23;0.10;;;0.05;;
37241;SDS011;23135;51.078;12.108;2023-08-06T06:03:49;3.50;;;0.10;;
37241;SDS011;23135;51.078;12.108;2023-08-06T06:06:14;0.40;;;0.03;;
37241;SDS011;23135;51.078;12.108;2023-08-06T06:08:41;0.15;;;0.00;;
37241;SDS011;23135;51.078;12.108;2023-08-06T06:11:07;6.03;;;0.28;;
37241;SDS011;23135;51.078;12.108;2023-08-06T06:13:32;2.70;;;0.03;;
37241;SDS011;23135;51.078;12.108;2023-08-06T06:15:58;2.13;;;0.10;;
37241;SDS011;23135;51.078;12.108;2023-08-06T06:18:23;3.25;;;0.00;;
37241;SDS011;23135;51.078;12.108;2023-08-06T06:20:49;0.10;;;0.10;;
37241;SDS011;23135;51.078;12.108;2023-08-06T06:23:15;0.75;;;0.32;;
37241;SDS011;23135;51.078;12.108;2023-08-06T06:25:46;2.13;;;0.13;;
37241;SDS011;23135;51.078;12.108;2023-08-06T06:30:38;2.13;;;0.10;;
37241;SDS011;23135;51.078;12.108;2023-08-06T06:33:04;4.63;;;0.35;;
37241;SDS011;23135;51.078;12.108;2023-08-06T06:35:29;0.32;;;0.25;;
37241;SDS011;23135;51.078;12.108;2023-08-06T06:37:55;0.52;;;0.10;;
37241;SDS011;23135;51.078;12.108;2023-08-06T06:40:20;0.52;;;0.08;;
37241;SDS011;23135;51.078;12.108;2023-08-06T06:42:46;0.28;;;0.10;;
37241;SDS011;23135;51.078;12.108;2023-08-06T06:45:11;0.13;;;0.10;;
37241;SDS011;23135;51.078;12.108;2023-08-06T06:47:37;0.43;;;0.15;;
37241;SDS011;23135;51.078;12.108;2023-08-06T06:50:03;0.43;;;0.30;;
37241;SDS011;23135;51.078;12.108;2023-08-06T06:52:29;2.25;;;0.25;;
37241;SDS011;23135;51.078;12.108;2023-08-06T06:54:55;0.98;;;0.35;;
37241;SDS011;23135;51.078;12.108;2023-08-06T06:57:20;1.20;;;0.20;;
37241;SDS011;23135;51.078;12.108;2023-08-06T06:59:46;0.20;;;0.20;;
37241;SDS011;23135;51.078;12.108;2023-08-06T07:02:11;0.30;;;0.10;;
37241;SDS011;23135;51.078;12.108;2023-08-06T07:04:37;1.25;;;0.55;;
37241;SDS011;23135;51.078;12.108;2023-08-06T07:07:03;0.90;;;0.25;;
37241;SDS011;23135;51.078;12.108;2023-08-06T07:09:29;0.10;;;0.10;;
37241;SDS011;23135;51.078;12.108;2023-08-06T07:11:54;1.75;;;0.30;;
37241;SDS011;23135;51.078;12.108;2023-08-06T07:14:20;3.40;;;0.22;;
37241;SDS011;23135;51.078;12.108;2023-08-06T07:16:45;0.10;;;0.10;;
37241;SDS011;23135;51.078;12.108;2023-08-06T07:19:11;0.38;;;0.32;;
37241;SDS011;23135;51.078;12.108;2023-08-06T07:21:36;0.20;;;0.10;;
37241;SDS011;23135;51.078;12.108;2023-08-06T07:24:02;2.05;;;0.20;;
37241;SDS011;23135;51.078;12.108;2023-08-06T07:26:28;0.17;;;0.17;;
37241;SDS011;23135;51.078;12.108;2023-08-06T07:28:54;2.20;;;0.50;;
37241;SDS011;23135;51.078;12.108;2023-08-06T07:31:19;0.82;;;0.17;;
37241;SDS011;23135;51.078;12.108;2023-08-06T07:33:45;1.35;;;0.28;;
37241;SDS011;23135;51.078;12.108;2023-08-06T07:36:11;1.00;;;0.30;;
37241;SDS011;23135;51.078;12.108;2023-08-06T07:38:38;3.50;;;0.40;;
37241;SDS011;23135;51.078;12.108;2023-08-06T07:41:04;0.32;;;0.10;;
37241;SDS011;23135;51.078;12.108;2023-08-06T07:43:30;1.85;;;0.00;;
37241;SDS011;23135;51.078;12.108;2023-08-06T07:45:59;0.50;;;0.00;;
37241;SDS011;23135;51.078;12.108;2023-08-06T07:48:26;2.05;;;0.28;;
37241;SDS011;23135;51.078;12.108;2023-08-06T07:50:52;0.52;;;0.10;;
37241;SDS011;23135;51.078;12.108;2023-08-06T07:53:21;0.10;;;0.10;;
37241;SDS011;23135;51.078;12.108;2023-08-06T07:55:51;0.30;;;0.10;;
37241;SDS011;23135;51.078;12.108;2023-08-06T07:58:21;2.65;;;0.10;;
37241;SDS011;23135;51.078;12.108;2023-08-06T08:00:49;0.30;;;0.13;;
37241;SDS011;23135;51.078;12.108;2023-08-06T08:03:15;0.65;;;0.10;;
37241;SDS011;23135;51.078;12.108;2023-08-06T08:05:42;0.47;;;0.28;;
37241;SDS011;23135;51.078;12.108;2023-08-06T08:08:08;2.47;;;0.15;;
37241;SDS011;23135;51.078;12.108;2023-08-06T08:10:34;1.15;;;0.10;;
37241;SDS011;23135;51.078;12.108;2023-08-06T08:13:03;0.35;;;0.20;;
37241;SDS011;23135;51.078;12.108;2023-08-06T08:15:29;0.22;;;0.22;;
37241;SDS011;23135;51.078;12.108;2023-08-06T08:17:56;1.23;;;0.10;;
37241;SDS011;23135;51.078;12.108;2023-08-06T08:20:21;1.20;;;0.40;;
37241;SDS011;23135;51.078;12.108;2023-08-06T08:22:47;0.60;;;0.10;;
37241;SDS011;23135;51.078;12.108;2023-08-06T08:25:13;0.47;;;0.20;;
37241;SDS011;23135;51.078;12.108;2023-08-06T08:27:38;0.38;;;0.38;;
37241;SDS011;23135;51.078;12.108;2023-08-06T08:30:04;1.52;;;0.20;;
37241;SDS011;23135;51.078;12.108;2023-08-06T08:32:31;0.10;;;0.10;;
37241;SDS011;23135;51.078;12.108;2023-08-06T08:34:56;2.28;;;0.10;;
37241;SDS011;23135;51.078;12.108;2023-08-06T08:37:22;1.67;;;0.03;;
37241;SDS011;23135;51.078;12.108;2023-08-06T08:39:49;2.05;;;0.20;;
37241;SDS011;23135;51.078;12.108;2023-08-06T08:42:15;0.25;;;0.20;;
37241;SDS011;23135;51.078;12.108;2023-08-06T08:44:41;0.22;;;0.10;;
37241;SDS011;23135;51.078;12.108;2023-08-06T08:47:07;0.15;;;0.15;;
37241;SDS011;23135;51.078;12.108;2023-08-06T08:49:35;2.63;;;0.30;;
37241;SDS011;23135;51.078;12.108;2023-08-06T08:52:02;0.65;;;0.30;;
37241;SDS011;23135;51.078;12.108;2023-08-06T08:54:32;1.65;;;0.40;;
37241;SDS011;23135;51.078;12.108;2023-08-06T08:56:58;0.75;;;0.20;;
37241;SDS011;23135;51.078;12.108;2023-08-06T08:59:24;1.45;;;0.10;;
37241;SDS011;23135;51.078;12.108;2023-08-06T09:01:49;1.30;;;0.10;;
37241;SDS011;23135;51.078;12.108;2023-08-06T09:04:16;1.38;;;0.10;;
37241;SDS011;23135;51.078;12.108;2023-08-06T09:06:43;1.85;;;0.10;;
37241;SDS011;23135;51.078;12.108;2023-08-06T09:09:15;0.80;;;0.10;;
37241;SDS011;23135;51.078;12.108;2023-08-06T09:11:49;0.40;;;0.10;;
37241;SDS011;23135;51.078;12.108;2023-08-06T09:14:15;0.28;;;0.00;;
37241;SDS011;23135;51.078;12.108;2023-08-06T09:16:42;5.63;;;0.10;;
37241;SDS011;23135;51.078;12.108;2023-08-06T09:21:38;0.50;;;0.15;;
37241;SDS011;23135;51.078;12.108;2023-08-06T09:24:08;0.40;;;0.10;;
37241;SDS011;23135;51.078;12.108;2023-08-06T09:26:36;0.25;;;0.10;;
37241;SDS011;23135;51.078;12.108;2023-08-06T09:29:03;2.03;;;0.10;;
37241;SDS011;23135;51.078;12.108;2023-08-06T09:36:46;0.38;;;0.08;;
37241;SDS011;23135;51.078;12.108;2023-08-06T09:39:13;1.83;;;0.75;;
37241;SDS011;23135;51.078;12.108;2023-08-06T09:41:40;0.15;;;0.10;;
37241;SDS011;23135;51.078;12.108;2023-08-06T09:44:14;0.10;;;0.10;;
37241;SDS011;23135;51.078;12.108;2023-08-06T09:46:51;2.10;;;0.00;;
37241;SDS011;23135;51.078;12.108;2023-08-06T09:49:19;2.13;;;0.00;;
37241;SDS011;23135;51.078;12.108;2023-08-06T09:51:48;1.25;;;0.10;;
37241;SDS011;23135;51.078;12.108;2023-08-06T09:54:17;2.08;;;0.13;;
37241;SDS011;23135;51.078;12.108;2023-08-06T09:56:45;0.70;;;0.10;;
37241;SDS011;23135;51.078;12.108;2023-08-06T09:59:12;0.20;;;0.10;;
37241;SDS011;23135;51.078;12.108;2023-08-06T10:01:38;0.55;;;0.00;;
37241;SDS011;23135;51.078;12.108;2023-08-06T10:04:05;1.05;;;0.20;;
37241;SDS011;23135;51.078;12.108;2023-08-06T10:06:35;0.20;;;0.20;;
37241;SDS011;23135;51.078;12.108;2023-08-06T10:09:01;1.13;;;0.10;;
37241;SDS011;23135;51.078;12.108;2023-08-06T10:11:28;1.42;;;0.20;;
37241;SDS011;23135;51.078;12.108;2023-08-06T10:13:55;2.47;;;0.20;;
37241;SDS011;23135;51.078;12.108;2023-08-06T10:16:29;1.95;;;0.15;;
37241;SDS011;23135;51.078;12.108;2023-08-06T10:18:55;1.08;;;0.10;;
37241;SDS011;23135;51.078;12.108;2023-08-06T10:21:23;1.17;;;0.13;;
37241;SDS011;23135;51.078;12.108;2023-08-06T10:23:53;1.05;;;0.10;;
37241;SDS011;23135;51.078;12.108;2023-08-06T10:26:20;0.43;;;0.10;;
37241;SDS011;23135;51.078;12.108;2023-08-06T10:28:45;0.90;;;0.00;;
37241;SDS011;23135;51.078;12.108;2023-08-06T10:31:11;0.10;;;0.10;;
37241;SDS011;23135;51.078;12.108;2023-08-06T10:33:40;1.00;;;0.20;;
37241;SDS011;23135;51.078;12.108;2023-08-06T10:36:08;1.17;;;0.10;;
37241;SDS011;23135;51.078;12.108;2023-08-06T10:38:34;0.45;;;0.10;;
37241;SDS011;23135;51.078;12.108;2023-08-06T10:41:08;0.20;;;0.10;;
37241;SDS011;23135;51.078;12.108;2023-08-06T10:44:10;0.65;;;0.10;;
37241;SDS011;23135;51.078;12.108;2023-08-06T10:46:36;0.70;;;0.17;;
37241;SDS011;23135;51.078;12.108;2023-08-06T10:49:03;1.02;;;0.10;;
37241;SDS011;23135;51.078;12.108;2023-08-06T10:51:29;1.33;;;0.10;;
37241;SDS011;23135;51.078;12.108;2023-08-06T10:53:55;0.30;;;0.00;;
37241;SDS011;23135;51.078;12.108;2023-08-06T10:56:23;1.77;;;0.00;;
37241;SDS011;23135;51.078;12.108;2023-08-06T10:58:51;0.85;;;0.20;;
37241;SDS011;23135;51.078;12.108;2023-08-06T11:01:19;0.10;;;0.08;;
37241;SDS011;23135;51.078;12.108;2023-08-06T11:03:46;0.70;;;0.10;;
37241;SDS011;23135;51.078;12.108;2023-08-06T11:06:19;0.77;;;0.10;;
37241;SDS011;23135;51.078;12.108;2023-08-06T11:08:52;1.05;;;0.00;;
37241;SDS011;23135;51.078;12.108;2023-08-06T11:11:19;2.78;;;0.00;;
37241;SDS011;23135;51.078;12.108;2023-08-06T11:13:47;2.25;;;0.10;;
37241;SDS011;23135;51.078;12.108;2023-08-06T11:16:20;0.32;;;0.08;;
37241;SDS011;23135;51.078;12.108;2023-08-06T11:18:51;0.52;;;0.10;;
37241;SDS011;23135;51.078;12.108;2023-08-06T11:21:21;0.38;;;0.10;;
37241;SDS011;23135;51.078;12.108;2023-08-06T11:23:47;0.60;;;0.00;;
37241;SDS011;23135;51.078;12.108;2023-08-06T11:26:13;0.30;;;0.10;;
37241;SDS011;23135;51.078;12.108;2023-08-06T11:28:48;0.17;;;0.00;;
37241;SDS011;23135;51.078;12.108;2023-08-06T11:31:20;0.60;;;0.10;;
37241;SDS011;23135;51.078;12.108;2023-08-06T11:33:47;0.88;;;0.10;;
37241;SDS011;23135;51.078;12.108;2023-08-06T11:36:12;2.90;;;0.20;;
37241;SDS011;23135;51.078;12.108;2023-08-06T11:38:38;1.23;;;0.00;;
37241;SDS011;23135;51.078;12.108;2023-08-06T11:41:04;0.00;;;0.00;;
37241;SDS011;23135;51.078;12.108;2023-08-06T11:43:31;0.82;;;0.00;;
37241;SDS011;23135;51.078;12.108;2023-08-06T11:45:58;0.20;;;0.10;;
37241;SDS011;23135;51.078;12.108;2023-08-06T11:48:25;0.20;;;0.10;;
37241;SDS011;23135;51.078;12.108;2023-08-06T11:50:53;2.03;;;0.15;;
37241;SDS011;23135;51.078;12.108;2023-08-06T11:53:19;0.00;;;0.00;;
37241;SDS011;23135;51.078;12.108;2023-08-06T11:55:45;0.00;;;0.00;;
37241;SDS011;23135;51.078;12.108;2023-08-06T11:58:10;0.38;;;0.20;;
37241;SDS011;23135;51.078;12.108;2023-08-06T12:00:39;0.68;;;0.00;;
37241;SDS011;23135;51.078;12.108;2023-08-06T12:03:05;0.08;;;0.00;;
37241;SDS011;23135;51.078;12.108;2023-08-06T12:05:31;0.47;;;0.00;;
37241;SDS011;23135;51.078;12.108;2023-08-06T12:08:01;0.08;;;0.08;;
37241;SDS011;23135;51.078;12.108;2023-08-06T12:10:28;1.75;;;0.00;;
37241;SDS011;23135;51.078;12.108;2023-08-06T12:12:55;0.22;;;0.00;;
37241;SDS011;23135;51.078;12.108;2023-08-06T12:15:21;0.35;;;0.00;;
37241;SDS011;23135;51.078;12.108;2023-08-06T12:17:47;1.85;;;0.00;;
37241;SDS011;23135;51.078;12.108;2023-08-06T12:20:13;1.30;;;0.00;;
37241;SDS011;23135;51.078;12.108;2023-08-06T12:22:39;0.10;;;0.00;;
37241;SDS011;23135;51.078;12.108;2023-08-06T12:25:08;0.25;;;0.00;;
37241;SDS011;23135;51.078;12.108;2023-08-06T12:27:43;0.52;;;0.10;;
37241;SDS011;23135;51.078;12.108;2023-08-06T12:30:10;2.92;;;0.17;;
37241;SDS011;23135;51.078;12.108;2023-08-06T12:32:37;1.60;;;0.00;;
37241;SDS011;23135;51.078;12.108;2023-08-06T12:35:03;0.47;;;0.00;;
37241;SDS011;23135;51.078;12.108;2023-08-06T12:37:32;1.85;;;0.00;;
37241;SDS011;23135;51.078;12.108;2023-08-06T12:39:57;0.45;;;0.20;;
37241;SDS011;23135;51.078;12.108;2023-08-06T12:42:23;1.33;;;0.10;;
37241;SDS011;23135;51.078;12.108;2023-08-06T12:44:49;0.68;;;0.00;;
37241;SDS011;23135;51.078;12.108;2023-08-06T12:47:15;0.10;;;0.00;;
37241;SDS011;23135;51.078;12.108;2023-08-06T12:49:42;0.68;;;0.10;;
37241;SDS011;23135;51.078;12.108;2023-08-06T12:52:07;1.00;;;0.05;;
37241;SDS011;23135;51.078;12.108;2023-08-06T12:54:34;0.22;;;0.00;;
37241;SDS011;23135;51.078;12.108;2023-08-06T12:57:02;0.95;;;0.00;;
37241;SDS011;23135;51.078;12.108;2023-08-06T12:59:28;0.45;;;0.10;;
37241;SDS011;23135;51.078;12.108;2023-08-06T13:01:54;0.38;;;0.00;;
37241;SDS011;23135;51.078;12.108;2023-08-06T13:04:19;0.38;;;0.00;;
37241;SDS011;23135;51.078;12.108;2023-08-06T13:06:45;0.10;;;0.00;;
37241;SDS011;23135;51.078;12.108;2023-08-06T13:09:11;0.63;;;0.00;;
37241;SDS011;23135;51.078;12.108;2023-08-06T13:11:38;0.00;;;0.00;;
37241;SDS011;23135;51.078;12.108;2023-08-06T13:14:13;0.10;;;0.00;;
37241;SDS011;23135;51.078;12.108;2023-08-06T13:16:40;0.15;;;0.00;;
37241;SDS011;23135;51.078;12.108;2023-08-06T13:19:06;2.42;;;0.10;;
37241;SDS011;23135;51.078;12.108;2023-08-06T13:21:34;1.85;;;0.10;;
37241;SDS011;23135;51.078;12.108;2023-08-06T13:24:01;1.15;;;0.10;;
37241;SDS011;23135;51.078;12.108;2023-08-06T13:26:30;0.10;;;0.10;;
37241;SDS011;23135;51.078;12.108;2023-08-06T13:28:59;0.73;;;0.10;;
37241;SDS011;23135;51.078;12.108;2023-08-06T13:31:27;0.10;;;0.00;;
37241;SDS011;23135;51.078;12.108;2023-08-06T13:33:54;0.03;;;0.00;;
37241;SDS011;23135;51.078;12.108;2023-08-06T13:36:20;2.22;;;0.30;;
37241;SDS011;23135;51.078;12.108;2023-08-06T13:38:46;0.08;;;0.08;;
37241;SDS011;23135;51.078;12.108;2023-08-06T13:41:12;0.52;;;0.13;;
37241;SDS011;23135;51.078;12.108;2023-08-06T13:43:38;0.05;;;0.00;;
37241;SDS011;23135;51.078;12.108;2023-08-06T13:46:04;0.35;;;0.00;;
37241;SDS011;23135;51.078;12.108;2023-08-06T13:48:29;0.22;;;0.00;;
37241;SDS011;23135;51.078;12.108;2023-08-06T13:50:55;1.65;;;0.95;;
37241;SDS011;23135;51.078;12.108;2023-08-06T13:53:21;1.38;;;0.20;;
37241;SDS011;23135;51.078;12.108;2023-08-06T13:55:46;0.93;;;0.00;;
37241;SDS011;23135;51.078;12.108;2023-08-06T13:58:12;1.58;;;0.00;;
37241;SDS011;23135;51.078;12.108;2023-08-06T14:00:37;0.00;;;0.00;;
37241;SDS011;23135;51.078;12.108;2023-08-06T14:03:03;0.22;;;0.10;;
37241;SDS011;23135;51.078;12.108;2023-08-06T14:05:29;0.28;;;0.10;;
37241;SDS011;23135;51.078;12.108;2023-08-06T14:07:54;6.05;;;0.30;;
37241;SDS011;23135;51.078;12.108;2023-08-06T14:10:20;4.10;;;0.13;;
37241;SDS011;23135;51.078;12.108;2023-08-06T14:12:45;0.20;;;0.00;;
37241;SDS011;23135;51.078;12.108;2023-08-06T14:15:11;0.22;;;0.10;;
37241;SDS011;23135;51.078;12.108;2023-08-06T14:17:37;0.75;;;0.00;;
37241;SDS011;23135;51.078;12.108;2023-08-06T14:20:03;1.55;;;0.20;;
37241;SDS011;23135;51.078;12.108;2023-08-06T14:22:30;1.75;;;0.00;;
37241;SDS011;23135;51.078;12.108;2023-08-06T14:24:56;0.43;;;0.03;;
37241;SDS011;23135;51.078;12.108;2023-08-06T14:27:23;0.65;;;0.10;;
37241;SDS011;23135;51.078;12.108;2023-08-06T14:29:48;1.45;;;0.20;;
37241;SDS011;23135;51.078;12.108;2023-08-06T14:32:15;4.28;;;0.52;;
37241;SDS011;23135;51.078;12.108;2023-08-06T14:34:43;0.95;;;0.08;;
37241;SDS011;23135;51.078;12.108;2023-08-06T14:37:09;5.95;;;0.20;;
37241;SDS011;23135;51.078;12.108;2023-08-06T14:39:35;3.28;;;0.10;;
37241;SDS011;23135;51.078;12.108;2023-08-06T14:42:01;3.47;;;0.20;;
37241;SDS011;23135;51.078;12.108;2023-08-06T14:44:28;4.35;;;0.05;;